TimeEDT,TemperatureF,Dew PointF,Humidity,Sea Level PressureIn,VisibilityMPH,Wind Direction,Wind SpeedMPH,Gust SpeedMPH,PrecipitationIn,Events,Conditions,WindDirDegrees,DateUTC
12:11 AM,75.2,73.4,94,29.82,2.5,East,5.8,-,0.05,Rain,Heavy Rain,100,2013-10-08 04:11:00
12:21 AM,75.2,73.4,94,29.82,1.8,SE,5.8,-,0.17,Rain,Heavy Rain,140,2013-10-08 04:21:00
12:32 AM,75.2,73.4,94,29.82,2.5,Calm,Calm,-,0.21,Rain,Rain,0,2013-10-08 04:32:00
12:39 AM,75.2,73.4,94,29.82,4.0,ESE,3.5,-,0.22,Rain,Rain,110,2013-10-08 04:39:00
12:53 AM,75.9,73.0,91,29.82,2.5,East,3.5,-,0.29,Rain,Heavy Rain,80,2013-10-08 04:53:00
12:58 AM,75.2,73.4,94,29.82,1.8,East,8.1,-,0.12,Rain,Heavy Rain,80,2013-10-08 04:58:00
1:53 AM,73.9,72.0,93,29.82,1.5,ENE,5.8,-,1.45,Rain,Heavy Rain,70,2013-10-08 05:53:00
2:05 AM,73.4,71.6,94,29.81,3.0,NE,3.5,-,0.06,Rain,Heavy Rain,40,2013-10-08 06:05:00
2:19 AM,73.4,71.6,94,29.81,6.0,ENE,6.9,-,0.07,Rain,Rain,70,2013-10-08 06:19:00
2:53 AM,73.9,71.1,91,29.81,10.0,NW,4.6,-,0.09,,Overcast,320,2013-10-08 06:53:00
3:53 AM,73.9,71.1,91,29.79,10.0,NNE,4.6,-,N/A,,Scattered Clouds,20,2013-10-08 07:53:00
4:02 AM,73.4,71.6,94,29.80,10.0,North,4.6,-,N/A,,Mostly Cloudy,350,2013-10-08 08:02:00
4:19 AM,75.2,71.6,89,29.80,10.0,North,6.9,-,N/A,,Overcast,350,2013-10-08 08:19:00
4:45 AM,75.2,71.6,89,29.81,2.0,NE,8.1,-,0.10,Rain,Heavy Rain,50,2013-10-08 08:45:00
4:53 AM,75.0,72.0,90,29.81,2.5,NNE,6.9,-,0.13,Rain,Heavy Rain,20,2013-10-08 08:53:00
5:04 AM,75.2,71.6,89,29.81,4.0,North,4.6,-,0.02,Rain,Light Rain,10,2013-10-08 09:04:00
5:34 AM,75.2,71.6,89,29.82,2.5,NE,10.4,16.1,0.12,Rain,Heavy Rain,50,2013-10-08 09:34:00
5:40 AM,75.2,71.6,89,29.82,3.0,NE,9.2,16.1,0.12,Rain,Light Rain,50,2013-10-08 09:40:00
5:53 AM,75.0,71.1,87,29.82,10.0,NE,8.1,-,0.12,Rain,Light Rain,40,2013-10-08 09:53:00
6:53 AM,73.9,71.1,91,29.83,8.0,NE,8.1,-,0.03,Rain,Light Rain,40,2013-10-08 10:53:00
7:51 AM,73.4,69.8,88,29.84,10.0,North,4.6,-,0.00,,Overcast,350,2013-10-08 11:51:00
7:53 AM,73.9,70.0,87,29.83,10.0,North,5.8,-,0.00,,Overcast,360,2013-10-08 11:53:00
8:53 AM,75.9,72.0,87,29.86,10.0,NNW,4.6,-,N/A,,Overcast,340,2013-10-08 12:53:00
9:35 AM,77.0,73.4,89,29.88,10.0,North,5.8,-,N/A,,Overcast,350,2013-10-08 13:35:00
9:49 AM,78.8,73.4,83,29.88,10.0,NNE,5.8,-,N/A,,Overcast,30,2013-10-08 13:49:00
9:53 AM,79.0,73.0,82,29.88,10.0,NE,9.2,-,N/A,,Mostly Cloudy,40,2013-10-08 13:53:00
10:53 AM,80.1,72.0,76,29.90,10.0,NE,9.2,19.6,0.00,,Overcast,40,2013-10-08 14:53:00
11:53 AM,80.1,72.0,76,29.89,10.0,NNE,11.5,-,N/A,,Overcast,30,2013-10-08 15:53:00
12:37 PM,78.8,71.6,78,29.90,9.0,NNE,12.7,27.6,0.00,Rain,Light Rain,30,2013-10-08 16:37:00
12:50 PM,78.8,71.6,78,29.90,10.0,NNE,16.1,26.5,0.00,,Overcast,30,2013-10-08 16:50:00
12:53 PM,78.1,72.0,81,29.90,10.0,NNE,17.3,26.5,0.00,,Overcast,20,2013-10-08 16:53:00
1:53 PM,75.9,71.1,85,29.90,10.0,NNE,10.4,23.0,0.00,Rain,Light Rain,20,2013-10-08 17:53:00
2:41 PM,73.4,69.8,88,29.90,9.0,North,13.8,23.0,0.00,Rain,Light Rain,360,2013-10-08 18:41:00
2:53 PM,73.9,70.0,87,29.90,6.0,North,12.7,-,0.00,,Overcast,360,2013-10-08 18:53:00
3:36 PM,73.4,69.8,88,29.91,8.0,North,15.0,21.9,0.00,,Overcast,10,2013-10-08 19:36:00
3:53 PM,73.9,69.1,85,29.92,10.0,North,11.5,-,0.00,,Overcast,10,2013-10-08 19:53:00
4:00 PM,73.4,69.8,88,29.92,8.0,North,10.4,-,N/A,,Overcast,360,2013-10-08 20:00:00
4:53 PM,73.0,69.1,87,29.94,2.5,NNE,10.4,25.3,0.00,Rain,Light Rain,30,2013-10-08 20:53:00
4:55 PM,73.4,69.8,88,29.94,3.0,NNE,11.5,25.3,0.00,Rain,Light Rain,20,2013-10-08 20:55:00
5:11 PM,71.6,68.0,88,29.94,2.5,NNE,12.7,26.5,0.01,Rain,Light Rain,20,2013-10-08 21:11:00
5:20 PM,71.6,68.0,88,29.94,3.0,NNE,12.7,20.7,0.01,Rain,Light Rain,20,2013-10-08 21:20:00
5:53 PM,72.0,68.0,87,29.95,7.0,North,12.7,-,0.01,Rain,Light Rain,10,2013-10-08 21:53:00
6:00 PM,71.6,68.0,88,29.96,9.0,NNE,10.4,20.7,N/A,,Overcast,20,2013-10-08 22:00:00
6:53 PM,72.0,66.9,84,29.96,10.0,North,11.5,19.6,N/A,,Overcast,10,2013-10-08 22:53:00
7:53 PM,71.1,66.0,84,29.98,9.0,North,9.2,-,N/A,,Overcast,360,2013-10-08 23:53:00
8:15 PM,69.8,66.2,88,29.98,7.0,North,9.2,-,N/A,,Overcast,360,2013-10-09 00:15:00
8:53 PM,69.1,64.9,87,30.00,7.0,North,10.4,20.7,0.00,,Overcast,10,2013-10-09 00:53:00
9:53 PM,68.0,64.9,90,30.01,6.0,North,10.4,18.4,0.00,Rain,Light Rain,360,2013-10-09 01:53:00
10:53 PM,68.0,64.0,87,30.02,7.0,North,10.4,-,0.01,,Overcast,350,2013-10-09 02:53:00
11:53 PM,66.9,64.0,90,30.02,5.0,North,9.2,-,N/A,,Overcast,360,2013-10-09 03:53:00